createdAt,value
2018-12-17T00:01:07.845Z,-6.70
2018-12-17T00:03:37.759Z,-6.60
2018-12-17T00:06:08.472Z,-6.70
2018-12-17T00:08:36.859Z,-6.60
2018-12-17T00:11:05.152Z,-6.60
2018-12-17T00:13:33.064Z,-6.60
2018-12-17T00:16:00.863Z,-6.60
2018-12-17T00:18:29.057Z,-6.60
2018-12-17T00:20:57.071Z,-6.60
2018-12-17T00:23:25.109Z,-6.70
2018-12-17T00:25:54.968Z,-6.80
2018-12-17T00:28:23.092Z,-6.90
2018-12-17T00:30:50.952Z,-7.00
2018-12-17T00:33:18.840Z,-7.10
2018-12-17T00:35:49.946Z,-7.30
2018-12-17T00:38:17.726Z,-7.30
2018-12-17T00:40:45.520Z,-7.40
2018-12-17T00:43:13.313Z,-7.50
2018-12-17T00:45:41.069Z,-7.50
2018-12-17T00:48:09.181Z,-7.50
2018-12-17T00:50:37.104Z,-7.50
2018-12-17T00:53:05.018Z,-7.60
2018-12-17T00:55:32.902Z,-7.60
2018-12-17T00:58:00.753Z,-7.60
2018-12-17T01:00:28.699Z,-7.60
2018-12-17T01:02:56.797Z,-7.60
2018-12-17T01:05:25.577Z,-7.50
2018-12-17T01:07:53.568Z,-7.50
2018-12-17T01:10:22.446Z,-7.50
2018-12-17T01:12:50.426Z,-7.50
2018-12-17T01:15:18.659Z,-7.40
2018-12-17T01:17:46.513Z,-7.40
2018-12-17T01:20:14.379Z,-7.30
2018-12-17T01:22:42.252Z,-7.20
2018-12-17T01:25:10.268Z,-7.20
2018-12-17T01:27:38.256Z,-7.10
2018-12-17T01:30:08.412Z,-6.90
2018-12-17T01:32:37.630Z,-7.00
2018-12-17T01:35:06.920Z,-6.90
2018-12-17T01:37:34.897Z,-6.80
2018-12-17T01:40:03.171Z,-6.80
2018-12-17T01:42:31.173Z,-6.80
2018-12-17T01:44:59.096Z,-6.80
2018-12-17T01:47:27.438Z,-6.70
2018-12-17T01:49:55.256Z,-6.70
2018-12-17T01:52:23.265Z,-6.70
2018-12-17T01:54:51.178Z,-6.70
2018-12-17T01:57:19.025Z,-6.90
2018-12-17T01:59:46.805Z,-6.90
2018-12-17T02:02:14.669Z,-7.00
2018-12-17T02:04:42.802Z,-7.00
2018-12-17T02:07:13.112Z,-7.00
2018-12-17T02:09:41.157Z,-7.20
2018-12-17T02:12:08.980Z,-7.10
2018-12-17T02:14:36.809Z,-7.10
2018-12-17T02:17:04.773Z,-7.20
2018-12-17T02:19:32.898Z,-7.10
2018-12-17T02:22:00.757Z,-7.30
2018-12-17T02:24:28.552Z,-7.30
2018-12-17T02:26:56.536Z,-7.40
2018-12-17T02:29:24.358Z,-7.40
2018-12-17T02:31:52.226Z,-7.50
2018-12-17T02:34:19.989Z,-7.50
2018-12-17T02:36:47.806Z,-7.50
2018-12-17T02:39:16.311Z,-7.50
2018-12-17T02:41:44.121Z,-7.60
2018-12-17T02:44:12.222Z,-7.60
2018-12-17T02:46:44.102Z,-7.60
2018-12-17T02:49:12.789Z,-7.70
2018-12-17T02:51:40.904Z,-7.60
2018-12-17T02:54:08.665Z,-7.70
2018-12-17T02:56:38.917Z,-7.60
2018-12-17T02:59:06.887Z,-7.60
2018-12-17T03:01:34.804Z,-7.80
2018-12-17T03:04:04.033Z,-7.50
2018-12-17T03:06:32.160Z,-7.50
2018-12-17T03:09:00.616Z,-7.40
2018-12-17T03:11:31.859Z,-7.40
2018-12-17T03:14:00.828Z,-7.40
2018-12-17T03:16:28.670Z,-7.40
2018-12-17T03:18:56.480Z,-7.30
2018-12-17T03:21:25.382Z,-7.40
2018-12-17T03:23:53.264Z,-7.50
2018-12-17T03:26:21.191Z,-7.60
2018-12-17T03:28:51.971Z,-7.60
2018-12-17T03:31:18.950Z,-7.60
2018-12-17T03:33:46.958Z,-7.70
2018-12-17T03:36:16.209Z,-7.80
2018-12-17T03:38:44.155Z,-7.80
2018-12-17T03:41:11.940Z,-7.90
2018-12-17T03:43:39.859Z,-8.00
2018-12-17T03:46:07.945Z,-8.00
2018-12-17T03:48:36.061Z,-8.10
2018-12-17T03:51:04.173Z,-8.10
2018-12-17T03:53:31.969Z,-8.20
2018-12-17T03:56:00.086Z,-8.20
2018-12-17T03:58:34.857Z,-8.40
2018-12-17T04:01:02.666Z,-8.40
2018-12-17T04:03:32.472Z,-8.50
2018-12-17T04:06:00.461Z,-8.60
2018-12-17T04:08:28.819Z,-8.60
2018-12-17T04:10:56.616Z,-8.70
2018-12-17T04:13:24.577Z,-8.70
2018-12-17T04:15:52.420Z,-8.80
2018-12-17T04:18:20.252Z,-8.80
2018-12-17T04:20:48.077Z,-8.80
2018-12-17T04:23:15.895Z,-8.90
2018-12-17T04:25:45.793Z,-8.90
2018-12-17T04:28:13.588Z,-9.00
2018-12-17T04:30:41.401Z,-9.00
2018-12-17T04:33:09.361Z,-9.00
2018-12-17T04:35:37.274Z,-9.10
2018-12-17T04:38:05.190Z,-9.20
2018-12-17T04:40:33.211Z,-9.20
2018-12-17T04:43:00.997Z,-9.20
2018-12-17T04:45:28.979Z,-9.30
2018-12-17T04:47:57.038Z,-9.20
2018-12-17T04:50:25.073Z,-9.20
2018-12-17T04:52:52.845Z,-9.20
2018-12-17T04:55:20.641Z,-9.20
2018-12-17T04:57:48.893Z,-9.20
2018-12-17T05:00:16.887Z,-9.30
2018-12-17T05:02:45.393Z,-9.30
2018-12-17T05:05:13.547Z,-9.30
2018-12-17T05:07:41.380Z,-9.30
2018-12-17T05:10:09.405Z,-9.40
2018-12-17T05:12:37.642Z,-9.40
2018-12-17T05:15:06.511Z,-9.40
2018-12-17T05:17:34.377Z,-9.30
2018-12-17T05:20:02.551Z,-9.20
2018-12-17T05:22:30.474Z,-9.10
2018-12-17T05:24:58.366Z,-8.90
2018-12-17T05:27:26.757Z,-8.70
2018-12-17T05:29:54.549Z,-8.50
2018-12-17T05:32:22.354Z,-8.40
2018-12-17T05:34:50.147Z,-8.20
2018-12-17T05:37:18.021Z,-8.10
2018-12-17T05:39:45.797Z,-7.90
2018-12-17T05:42:14.816Z,-7.80
2018-12-17T05:44:42.689Z,-7.70
2018-12-17T05:47:10.527Z,-7.50
2018-12-17T05:49:38.471Z,-7.40
2018-12-17T05:52:06.381Z,-7.20
2018-12-17T05:54:34.213Z,-7.10
2018-12-17T05:57:02.145Z,-7.00
2018-12-17T05:59:30.061Z,-6.80
2018-12-17T06:01:59.406Z,-6.70
2018-12-17T06:04:27.348Z,-6.60
2018-12-17T06:06:55.607Z,-6.50
2018-12-17T06:09:23.812Z,-6.40
2018-12-17T06:11:51.729Z,-6.40
2018-12-17T06:14:19.607Z,-6.30
2018-12-17T06:16:47.609Z,-6.30
2018-12-17T06:19:15.491Z,-6.20
2018-12-17T06:21:43.574Z,-6.20
2018-12-17T06:24:11.493Z,-6.10
2018-12-17T06:26:39.345Z,-6.00
2018-12-17T06:29:07.154Z,-6.00
2018-12-17T06:31:35.550Z,-5.90
2018-12-17T06:34:03.581Z,-5.90
2018-12-17T06:36:31.332Z,-5.90
2018-12-17T06:38:59.240Z,-5.80
2018-12-17T06:41:27.040Z,-5.70
2018-12-17T06:43:54.913Z,-5.70
2018-12-17T06:46:23.194Z,-5.60
2018-12-17T06:48:51.091Z,-5.50
2018-12-17T06:51:21.001Z,-5.50
2018-12-17T06:53:48.966Z,-5.40
2018-12-17T06:56:16.790Z,-5.30
2018-12-17T06:58:44.755Z,-5.30
2018-12-17T07:01:12.697Z,-5.20
2018-12-17T07:03:40.566Z,-5.10
2018-12-17T07:06:08.701Z,-5.00
2018-12-17T07:08:36.765Z,-5.00
2018-12-17T07:11:05.916Z,-4.90
2018-12-17T07:13:33.941Z,-4.80
2018-12-17T07:16:02.105Z,-4.80
2018-12-17T07:18:29.889Z,-4.70
2018-12-17T07:20:57.673Z,-4.70
2018-12-17T07:23:25.744Z,-4.60
2018-12-17T07:25:53.527Z,-4.50
2018-12-17T07:28:21.328Z,-4.40
2018-12-17T07:30:49.718Z,-4.40
2018-12-17T07:33:17.613Z,-4.40
2018-12-17T07:35:45.449Z,-4.40
2018-12-17T07:38:13.364Z,-4.30
2018-12-17T07:40:41.239Z,-4.30
2018-12-17T07:43:11.440Z,-4.20
2018-12-17T07:45:39.290Z,-4.10
2018-12-17T07:48:07.229Z,-4.10
2018-12-17T07:50:35.131Z,-4.00
2018-12-17T07:53:03.158Z,-3.90
2018-12-17T07:55:31.027Z,-3.80
2018-12-17T07:57:58.844Z,-3.70
2018-12-17T08:00:33.992Z,-3.60
2018-12-17T08:03:01.852Z,-3.40
2018-12-17T08:05:29.673Z,-3.40
2018-12-17T08:07:57.722Z,-3.30
2018-12-17T08:10:25.560Z,-3.30
2018-12-17T08:12:53.379Z,-3.20
2018-12-17T08:15:21.128Z,-3.10
2018-12-17T08:18:05.082Z,-3.10
2018-12-17T08:20:32.852Z,-3.00
2018-12-17T08:23:00.631Z,-2.80
2018-12-17T08:25:28.569Z,-2.80
2018-12-17T08:27:56.496Z,-2.60
2018-12-17T08:30:24.476Z,-2.60
2018-12-17T08:32:52.422Z,-2.50
2018-12-17T08:35:20.213Z,-2.40
2018-12-17T08:37:48.032Z,-2.40
2018-12-17T08:40:15.821Z,-2.30
2018-12-17T08:42:43.764Z,-2.30
2018-12-17T08:45:11.636Z,-2.20
2018-12-17T08:47:39.452Z,-2.20
2018-12-17T08:50:11.579Z,-2.10
2018-12-17T08:52:39.406Z,-2.00
2018-12-17T08:55:07.446Z,-1.90
2018-12-17T08:57:38.123Z,-1.80
2018-12-17T09:00:11.081Z,-1.80
2018-12-17T09:02:39.178Z,-1.70
2018-12-17T09:05:07.328Z,-1.60
2018-12-17T09:07:35.565Z,-1.70
2018-12-17T09:10:04.951Z,-1.60
2018-12-17T09:12:34.384Z,-1.60
2018-12-17T09:15:02.596Z,-1.50
2018-12-17T09:17:31.898Z,-1.40
2018-12-17T09:19:59.825Z,-1.20
2018-12-17T09:22:29.214Z,-1.10
2018-12-17T09:24:57.061Z,-1.00
2018-12-17T09:27:24.931Z,-0.90
2018-12-17T09:29:52.969Z,-0.80
2018-12-17T09:32:20.953Z,-0.60
2018-12-17T09:34:48.901Z,-0.40
2018-12-17T09:37:16.848Z,-0.30
2018-12-17T09:39:44.750Z,-0.20
2018-12-17T09:42:12.755Z,-0.20
2018-12-17T09:44:40.534Z,-0.20
2018-12-17T09:47:08.401Z,-0.30
2018-12-17T09:49:36.375Z,-0.20
2018-12-17T09:52:04.405Z,-0.20
2018-12-17T09:54:32.432Z,-0.10
2018-12-17T09:57:00.269Z,-0.10
2018-12-17T09:59:28.111Z,0.00
2018-12-17T10:01:55.986Z,0.00
2018-12-17T10:04:26.271Z,0.00
2018-12-17T10:06:54.094Z,0.00
2018-12-17T10:09:21.904Z,0.10
2018-12-17T10:11:49.786Z,0.10
2018-12-17T10:14:17.680Z,0.10
2018-12-17T10:16:45.671Z,0.20
2018-12-17T10:19:13.664Z,0.20
2018-12-17T10:21:41.743Z,0.30
2018-12-17T10:24:09.880Z,0.40
2018-12-17T10:26:37.774Z,0.50
2018-12-17T10:29:05.724Z,0.50
2018-12-17T10:31:33.559Z,0.60
2018-12-17T10:34:01.333Z,0.60
2018-12-17T10:36:29.369Z,0.70
2018-12-17T10:38:57.216Z,0.70
2018-12-17T10:41:25.084Z,0.80
2018-12-17T10:43:54.929Z,0.80
2018-12-17T10:46:22.897Z,0.80
2018-12-17T10:48:50.789Z,0.90
2018-12-17T10:51:18.742Z,0.90
2018-12-17T10:53:46.942Z,1.00
2018-12-17T10:56:14.762Z,1.10
2018-12-17T10:58:42.724Z,1.10
2018-12-17T11:01:16.416Z,1.20
2018-12-17T11:03:49.232Z,1.20
2018-12-17T11:06:20.143Z,1.30
2018-12-17T11:08:50.050Z,1.40
2018-12-17T11:11:18.084Z,1.50
2018-12-17T11:13:46.089Z,1.40
2018-12-17T11:16:14.020Z,1.50
2018-12-17T11:18:41.931Z,1.50
2018-12-17T11:21:09.904Z,1.50
2018-12-17T11:23:37.692Z,1.60
2018-12-17T11:26:05.628Z,1.60
2018-12-17T11:28:33.645Z,1.60
2018-12-17T11:31:01.685Z,1.60
2018-12-17T11:33:29.574Z,1.60
2018-12-17T11:35:57.335Z,1.70
2018-12-17T11:38:25.739Z,1.80
2018-12-17T11:40:53.616Z,1.80
2018-12-17T11:43:21.363Z,1.80
2018-12-17T11:45:49.646Z,1.80
2018-12-17T11:48:17.642Z,1.80
2018-12-17T11:50:45.494Z,1.90
2018-12-17T11:53:13.481Z,1.80
2018-12-17T11:55:41.288Z,1.90
2018-12-17T11:58:10.792Z,1.80
2018-12-17T12:00:54.188Z,1.80
2018-12-17T12:03:23.811Z,1.70
2018-12-17T12:05:51.835Z,1.70
2018-12-17T12:08:22.841Z,1.70
2018-12-17T12:10:50.996Z,1.70
2018-12-17T12:13:19.142Z,1.70
2018-12-17T12:15:46.949Z,1.70
2018-12-17T12:18:14.772Z,1.70
2018-12-17T12:20:42.845Z,1.80
2018-12-17T12:23:10.621Z,1.80
2018-12-17T12:25:39.768Z,1.80
2018-12-17T12:28:07.913Z,1.80
2018-12-17T12:30:36.155Z,1.70
2018-12-17T12:33:04.054Z,1.70
2018-12-17T12:35:32.269Z,1.60
2018-12-17T12:38:00.169Z,1.60
2018-12-17T12:40:27.953Z,1.50
2018-12-17T12:42:55.860Z,1.40
2018-12-17T12:45:23.733Z,1.40
2018-12-17T12:47:51.631Z,1.50
2018-12-17T12:50:19.621Z,1.50
2018-12-17T12:52:47.706Z,1.50
2018-12-17T12:55:15.764Z,1.60
2018-12-17T12:57:43.703Z,1.60
2018-12-17T13:00:13.980Z,1.50
2018-12-17T13:02:42.489Z,1.60
2018-12-17T13:05:10.654Z,1.50
2018-12-17T13:07:43.145Z,1.50
2018-12-17T13:10:13.291Z,1.60
2018-12-17T13:12:41.529Z,1.50
2018-12-17T13:15:10.744Z,1.50
2018-12-17T13:17:38.717Z,1.40
2018-12-17T13:20:08.857Z,1.30
2018-12-17T13:22:36.749Z,1.40
2018-12-17T13:25:06.855Z,1.30
2018-12-17T13:27:34.670Z,1.30
2018-12-17T13:30:02.815Z,1.30
2018-12-17T13:32:31.948Z,1.20
2018-12-17T13:34:59.761Z,1.20
2018-12-17T13:37:27.722Z,1.10
2018-12-17T13:39:55.616Z,1.10
2018-12-17T13:42:25.346Z,1.10
2018-12-17T13:44:53.541Z,1.10
2018-12-17T13:47:21.357Z,1.10
2018-12-17T13:49:49.174Z,1.10
2018-12-17T13:52:24.305Z,1.10
2018-12-17T13:54:52.200Z,1.10
2018-12-17T13:57:19.998Z,1.00
2018-12-17T13:59:47.782Z,1.00
2018-12-17T14:02:15.561Z,1.10
2018-12-17T14:04:43.303Z,1.10
2018-12-17T14:07:11.147Z,1.00
2018-12-17T14:09:44.773Z,1.00
2018-12-17T14:12:13.177Z,1.10
2018-12-17T14:14:40.946Z,1.00
2018-12-17T14:17:18.534Z,1.10
2018-12-17T14:19:52.040Z,1.00
2018-12-17T14:22:19.861Z,0.90
2018-12-17T14:24:47.621Z,1.00
2018-12-17T14:27:15.589Z,0.90
2018-12-17T14:29:43.372Z,0.90
2018-12-17T14:32:11.258Z,0.90
2018-12-17T14:34:39.077Z,0.90
2018-12-17T14:37:06.957Z,0.90
2018-12-17T14:39:51.370Z,0.90
2018-12-17T14:42:27.225Z,0.90
2018-12-17T14:44:57.186Z,0.80
2018-12-17T14:47:26.919Z,0.80
2018-12-17T14:50:18.057Z,0.70
2018-12-17T14:52:54.979Z,0.80
2018-12-17T14:55:40.784Z,0.80
2018-12-17T14:58:09.071Z,0.80
2018-12-17T15:00:40.621Z,0.80
2018-12-17T15:03:09.049Z,0.80
2018-12-17T15:05:36.869Z,0.80
2018-12-17T15:08:04.728Z,0.80
2018-12-17T15:10:32.641Z,0.80
2018-12-17T15:13:01.128Z,0.80
2018-12-17T15:15:29.133Z,0.80
2018-12-17T15:17:57.013Z,0.60
2018-12-17T15:20:24.764Z,0.70
2018-12-17T15:22:52.589Z,0.70
2018-12-17T15:25:21.123Z,0.70
2018-12-17T15:27:49.024Z,0.70
2018-12-17T15:30:16.996Z,0.70
2018-12-17T15:32:45.337Z,0.70
2018-12-17T15:35:13.236Z,0.70
2018-12-17T15:37:41.528Z,0.70
2018-12-17T15:40:10.123Z,0.70
2018-12-17T15:42:40.990Z,0.70
2018-12-17T15:45:07.995Z,0.70
2018-12-17T15:47:36.668Z,0.70
2018-12-17T15:50:04.743Z,0.70
2018-12-17T15:52:32.645Z,0.70
2018-12-17T15:55:04.369Z,0.70
2018-12-17T15:57:39.345Z,0.70
2018-12-17T16:00:11.167Z,0.70
2018-12-17T16:02:39.136Z,0.60
2018-12-17T16:05:07.037Z,0.60
2018-12-17T16:07:34.969Z,0.60
2018-12-17T16:10:03.748Z,0.60
2018-12-17T16:12:31.638Z,0.60
2018-12-17T16:14:59.589Z,0.60
2018-12-17T16:17:28.038Z,0.70
2018-12-17T16:19:56.000Z,0.70
2018-12-17T16:22:24.048Z,0.70
2018-12-17T16:24:51.909Z,0.70
2018-12-17T16:27:19.848Z,0.60
2018-12-17T16:29:49.429Z,0.60
2018-12-17T16:32:17.297Z,0.70
2018-12-17T16:34:45.503Z,0.70
2018-12-17T16:37:13.505Z,0.70
2018-12-17T16:39:44.722Z,0.70
2018-12-17T16:42:12.606Z,0.70
2018-12-17T16:44:40.660Z,0.70
2018-12-17T16:47:08.570Z,0.70
2018-12-17T16:49:36.809Z,0.70
2018-12-17T16:52:04.853Z,0.90
2018-12-17T16:54:32.932Z,0.80
2018-12-17T16:57:00.972Z,0.80
2018-12-17T16:59:28.840Z,0.80
2018-12-17T17:02:04.311Z,0.80
2018-12-17T17:04:27.279Z,0.80
2018-12-17T17:06:55.089Z,0.80
2018-12-17T17:09:23.316Z,0.90
2018-12-17T17:11:51.132Z,0.90
2018-12-17T17:14:18.914Z,0.80
2018-12-17T17:16:47.148Z,0.80
2018-12-17T17:19:15.069Z,0.90
2018-12-17T17:21:42.960Z,0.90
2018-12-17T17:24:14.272Z,0.90
2018-12-17T17:26:42.162Z,0.80
2018-12-17T17:29:09.904Z,0.90
2018-12-17T17:31:37.850Z,0.90
2018-12-17T17:34:05.679Z,0.90
2018-12-17T17:36:33.980Z,0.90
2018-12-17T17:39:01.926Z,0.90
2018-12-17T17:41:31.877Z,0.90
2018-12-17T17:43:59.913Z,0.90
2018-12-17T17:46:27.813Z,0.90
2018-12-17T17:48:55.823Z,0.90
2018-12-17T17:51:23.897Z,0.90
2018-12-17T17:53:51.692Z,0.90
2018-12-17T17:56:19.582Z,0.90
2018-12-17T17:58:47.593Z,0.90
2018-12-17T18:01:15.529Z,0.90
2018-12-17T18:03:43.308Z,0.90
2018-12-17T18:06:16.295Z,0.90
2018-12-17T18:08:42.357Z,0.90
2018-12-17T18:11:10.217Z,0.90
2018-12-17T18:13:37.992Z,1.00
2018-12-17T18:16:06.044Z,1.00
2018-12-17T18:18:33.901Z,1.00
2018-12-17T18:21:01.898Z,1.00
2018-12-17T18:23:32.677Z,1.00
2018-12-17T18:26:03.519Z,1.00
2018-12-17T18:28:32.754Z,0.90
2018-12-17T18:31:01.861Z,1.10
2018-12-17T18:33:30.166Z,1.10
2018-12-17T18:35:58.029Z,1.10
2018-12-17T18:38:25.849Z,1.10
2018-12-17T18:40:57.829Z,1.10
2018-12-17T18:43:25.691Z,1.10
2018-12-17T18:45:53.526Z,1.10
2018-12-17T18:48:22.578Z,1.00
2018-12-17T18:50:50.541Z,1.00
2018-12-17T18:53:18.355Z,1.00
2018-12-17T18:55:46.874Z,1.00
2018-12-17T18:58:14.665Z,1.00
2018-12-17T19:00:43.034Z,1.00
2018-12-17T19:03:11.742Z,1.10
2018-12-17T19:05:39.832Z,1.10
2018-12-17T19:08:07.602Z,1.00
2018-12-17T19:10:41.644Z,0.90
2018-12-17T19:13:10.257Z,0.90
2018-12-17T19:15:38.711Z,0.90
2018-12-17T19:18:15.194Z,0.90
2018-12-17T19:20:45.139Z,1.00
2018-12-17T19:25:59.492Z,1.00
2018-12-17T19:31:01.607Z,1.00
2018-12-17T19:33:29.798Z,1.10
2018-12-17T19:35:58.015Z,1.10
2018-12-17T19:38:26.946Z,1.20
2018-12-17T19:40:54.992Z,1.20
2018-12-17T19:43:24.574Z,1.20
2018-12-17T19:45:56.001Z,1.20
2018-12-17T19:48:23.956Z,1.20
2018-12-17T19:50:51.828Z,1.20
2018-12-17T19:53:24.361Z,1.20
2018-12-17T19:55:55.417Z,1.20
2018-12-17T19:58:24.327Z,1.20
2018-12-17T20:00:55.073Z,1.20
2018-12-17T20:03:23.322Z,1.20
2018-12-17T20:05:51.524Z,1.20
2018-12-17T20:08:22.707Z,1.20
2018-12-17T20:10:55.391Z,1.20
2018-12-17T20:13:28.882Z,1.20
2018-12-17T20:15:56.887Z,1.20
2018-12-17T20:18:24.794Z,1.20
2018-12-17T20:20:52.773Z,1.20
2018-12-17T20:23:20.750Z,1.20
2018-12-17T20:25:48.634Z,1.20
2018-12-17T20:28:16.845Z,1.20
2018-12-17T20:30:45.215Z,1.20
2018-12-17T20:33:16.103Z,1.20
2018-12-17T20:35:44.157Z,1.20
2018-12-17T20:38:15.521Z,1.20
2018-12-17T20:40:50.932Z,1.10
2018-12-17T20:43:21.281Z,1.20
2018-12-17T20:45:49.739Z,1.20
2018-12-17T20:48:18.636Z,1.10
2018-12-17T20:50:47.530Z,1.20
2018-12-17T20:53:21.542Z,1.10
2018-12-17T20:56:01.155Z,1.10
2018-12-17T20:58:47.617Z,1.10
2018-12-17T21:01:25.819Z,1.20
2018-12-17T21:04:03.323Z,1.20
2018-12-17T21:06:31.201Z,1.20
2018-12-17T21:09:15.542Z,1.20
2018-12-17T21:11:52.644Z,1.20
2018-12-17T21:14:23.795Z,1.20
2018-12-17T21:16:51.961Z,1.20
2018-12-17T21:19:20.778Z,1.20
2018-12-17T21:21:49.019Z,1.20
2018-12-17T21:24:17.009Z,1.30
2018-12-17T21:26:44.901Z,1.40
2018-12-17T21:29:12.956Z,1.30
2018-12-17T21:32:45.358Z,1.30
2018-12-17T21:35:13.316Z,1.30
2018-12-17T21:37:41.176Z,1.30
2018-12-17T21:40:12.837Z,1.30
2018-12-17T21:42:40.925Z,1.30
2018-12-17T21:45:09.860Z,1.30
2018-12-17T21:47:39.000Z,1.30
2018-12-17T21:50:07.636Z,1.30
2018-12-17T21:52:36.589Z,1.30
2018-12-17T21:55:05.384Z,1.30
2018-12-17T21:57:36.193Z,1.30
2018-12-17T22:00:05.552Z,1.30
2018-12-17T22:02:35.532Z,1.30
2018-12-17T22:05:05.048Z,1.30
2018-12-17T22:07:34.432Z,1.30
2018-12-17T22:10:02.550Z,1.30
2018-12-17T22:12:31.174Z,1.30
2018-12-17T22:14:59.134Z,1.30
2018-12-17T22:17:27.069Z,1.30
2018-12-17T22:19:55.144Z,1.30
2018-12-17T22:22:23.112Z,1.20
2018-12-17T22:24:51.075Z,1.20
2018-12-17T22:27:18.876Z,1.20
2018-12-17T22:29:46.953Z,1.20
2018-12-17T22:32:15.949Z,1.20
2018-12-17T22:34:44.186Z,1.20
2018-12-17T22:37:12.276Z,1.10
2018-12-17T22:39:40.154Z,1.20
2018-12-17T22:42:08.057Z,1.20
2018-12-17T22:44:35.996Z,1.20
2018-12-17T22:47:04.086Z,1.20
2018-12-17T22:49:32.094Z,1.10
2018-12-17T22:52:00.198Z,1.10
2018-12-17T22:54:28.061Z,1.10
2018-12-17T22:56:55.992Z,1.10
2018-12-17T22:59:23.793Z,1.00
2018-12-17T23:01:51.669Z,1.00
2018-12-17T23:04:21.920Z,1.00
2018-12-17T23:06:49.897Z,1.00
2018-12-17T23:12:12.410Z,1.00
2018-12-17T23:14:58.116Z,1.00
2018-12-17T23:17:41.598Z,1.10
2018-12-17T23:20:10.592Z,1.10
2018-12-17T23:22:43.364Z,1.10
2018-12-17T23:25:13.344Z,1.10
2018-12-17T23:27:48.287Z,1.10
2018-12-17T23:30:16.525Z,1.10
2018-12-17T23:32:44.706Z,1.10
2018-12-17T23:35:12.905Z,1.10
2018-12-17T23:37:40.948Z,1.10
2018-12-17T23:40:10.289Z,1.10
2018-12-17T23:42:39.790Z,1.10
2018-12-17T23:45:08.138Z,1.10
2018-12-17T23:47:37.112Z,1.10
2018-12-17T23:50:05.869Z,1.20
2018-12-17T23:52:35.620Z,1.10
2018-12-17T23:55:03.889Z,1.20
2018-12-17T23:57:32.072Z,1.20
